KTVI/TVI METAR and TAF weather

Enter ICAO airport designator
Station Type Date Time Source
KTVI METAR 2024/04/15 08:55 UTC NOAA

KTVI 150855Z AUTO 00000KT 10SM CLR 15/09 A3008 RMK AO2


Station Type Date Time Source
KTVI Decoded METAR 2024/04/15 08:55 UTC NOAA

Thomasville, GA, United States (KTVI) 30-54-06N 083-52-53W
Apr 15, 2024 - 04:55 AM EDT / 2024.04.15 0855 UTC
Wind: Calm:0
Visibility: 10 mile(s):0
Sky conditions: clear
Temperature: 59 F (15 C)
Dew Point: 48 F (9 C)
Relative Humidity: 67%
Pressure (altimeter): 30.08 in. Hg (1018 hPa)
ob: KTVI 150855Z AUTO 00000KT 10SM CLR 15/09 A3008 RMK AO2
cycle: 9

Station Type Date Time Source
KTVI TAF UTC NOAA

Error!

Example: see airport list